createdAt,value
2023-03-05T00:05:54.345Z,16.7
2023-03-05T00:12:00.227Z,16.7
2023-03-05T00:18:05.993Z,16.7
2023-03-05T00:24:12.063Z,16.7
2023-03-05T00:30:17.748Z,16.6
2023-03-05T00:36:23.525Z,16.6
2023-03-05T00:42:29.316Z,16.6
2023-03-05T00:48:34.876Z,16.6
2023-03-05T00:54:40.549Z,16.5
2023-03-05T01:00:46.441Z,16.5
2023-03-05T01:06:52.418Z,16.5
2023-03-05T01:12:57.978Z,16.5
2023-03-05T01:19:03.957Z,16.4
2023-03-05T01:25:09.741Z,16.4
2023-03-05T01:31:15.529Z,16.3
2023-03-05T01:37:21.116Z,16.4
2023-03-05T01:43:26.844Z,16.3
2023-03-05T01:49:32.678Z,16.3
2023-03-05T01:55:39.019Z,16.4
2023-03-05T02:01:44.802Z,16.4
2023-03-05T02:07:50.561Z,16.4
2023-03-05T02:13:56.599Z,16.4
2023-03-05T02:20:02.739Z,16.4
2023-03-05T02:26:08.124Z,16.4
2023-03-05T02:32:14.631Z,16.4
2023-03-05T02:38:20.482Z,16.4
2023-03-05T02:44:26.453Z,16.5
2023-03-05T02:50:31.888Z,16.5
2023-03-05T02:56:37.606Z,16.5
2023-03-05T03:02:43.828Z,16.5
2023-03-05T03:08:49.762Z,16.4
2023-03-05T03:14:55.542Z,16.5
2023-03-05T03:21:01.317Z,16.5
2023-03-05T03:27:07.095Z,16.5
2023-03-05T03:33:13.089Z,16.4
2023-03-05T03:39:18.892Z,16.4
2023-03-05T03:45:24.252Z,16.4
2023-03-05T03:51:29.812Z,16.4
2023-03-05T03:57:35.378Z,16.5
2023-03-05T04:03:41.570Z,16.4
2023-03-05T04:09:47.356Z,16.4
2023-03-05T04:15:53.140Z,16.4
2023-03-05T04:21:59.308Z,16.4
2023-03-05T04:28:05.292Z,16.4
2023-03-05T04:34:10.844Z,16.4
2023-03-05T04:40:17.043Z,16.4
2023-03-05T04:46:23.054Z,16.4
2023-03-05T04:52:28.772Z,16.4
2023-03-05T04:58:34.975Z,16.4
2023-03-05T05:04:41.175Z,16.3
2023-03-05T05:10:47.154Z,16.4
2023-03-05T05:16:53.333Z,16.4
2023-03-05T05:22:58.725Z,16.4
2023-03-05T05:29:04.283Z,16.3
2023-03-05T05:35:10.450Z,16.4
2023-03-05T05:41:16.296Z,16.4
2023-03-05T05:47:22.008Z,16.4
2023-03-05T05:53:27.972Z,16.5
2023-03-05T05:59:34.171Z,16.6
2023-03-05T06:05:39.935Z,16.8
2023-03-05T06:11:45.932Z,16.8
2023-03-05T06:17:51.769Z,16.9
2023-03-05T06:23:57.371Z,16.9
2023-03-05T06:30:03.132Z,16.9
2023-03-05T06:36:08.854Z,16.9
2023-03-05T06:42:14.624Z,16.9
2023-03-05T06:48:20.603Z,16.9
2023-03-05T06:54:26.168Z,16.8
2023-03-05T07:00:31.939Z,16.8
2023-03-05T07:06:37.969Z,16.8
2023-03-05T07:12:43.724Z,16.8
2023-03-05T07:18:49.501Z,16.7
2023-03-05T07:24:55.892Z,16.8
2023-03-05T07:31:01.224Z,16.8
2023-03-05T07:37:07.290Z,16.8
2023-03-05T07:43:12.853Z,16.8
2023-03-05T07:49:18.253Z,16.7
2023-03-05T07:55:24.131Z,16.7
2023-03-05T08:01:29.930Z,16.7
2023-03-05T08:07:35.708Z,16.7
2023-03-05T08:13:42.106Z,16.7
2023-03-05T08:19:48.055Z,16.7
2023-03-05T08:25:53.860Z,16.7
2023-03-05T08:31:59.867Z,16.8
2023-03-05T08:38:05.804Z,16.8
2023-03-05T08:44:12.015Z,16.8
2023-03-05T08:50:17.579Z,16.8
2023-03-05T08:56:24.585Z,16.9
2023-03-05T09:02:30.502Z,16.8
2023-03-05T09:08:36.986Z,16.9
2023-03-05T09:14:42.533Z,16.9
2023-03-05T09:20:48.294Z,16.9
2023-03-05T09:26:54.149Z,16.9
2023-03-05T09:33:00.467Z,16.9
2023-03-05T09:39:06.659Z,16.9
2023-03-05T09:45:12.417Z,16.9
2023-03-05T09:51:18.083Z,16.9
2023-03-05T09:57:23.981Z,16.9
2023-03-05T10:03:29.815Z,16.9
2023-03-05T10:09:36.945Z,16.9
2023-03-05T10:15:42.734Z,16.9
2023-03-05T10:21:47.903Z,16.9
2023-03-05T10:27:54.428Z,16.9
2023-03-05T10:34:00.259Z,16.9
2023-03-05T10:40:06.289Z,16.9
2023-03-05T10:46:12.324Z,16.9
2023-03-05T10:52:18.720Z,16.9
2023-03-05T10:58:24.885Z,16.9
2023-03-05T11:04:30.804Z,17
2023-03-05T11:10:37.201Z,17
2023-03-05T11:16:42.975Z,17
2023-03-05T11:22:49.171Z,17
2023-03-05T11:28:54.732Z,17
2023-03-05T11:35:00.697Z,17
2023-03-05T11:41:06.363Z,17
2023-03-05T11:47:12.063Z,17
2023-03-05T11:53:17.650Z,17.1
2023-03-05T11:59:23.185Z,17.1
2023-03-05T12:05:29.176Z,17.1
2023-03-05T12:11:35.176Z,17.1
2023-03-05T12:17:41.145Z,17.1
2023-03-05T12:23:47.344Z,17
2023-03-05T12:29:53.093Z,17
2023-03-05T12:35:58.705Z,17.1
2023-03-05T12:42:04.657Z,17.1
2023-03-05T12:48:10.683Z,17.1
2023-03-05T12:54:18.248Z,17.1
2023-03-05T13:00:25.136Z,17.1
2023-03-05T13:06:31.254Z,17.2
2023-03-05T13:12:37.222Z,17.2
2023-03-05T13:18:43.207Z,17.2
2023-03-05T13:24:48.651Z,17.1
2023-03-05T13:30:54.536Z,17.2
2023-03-05T13:37:00.541Z,17.1
2023-03-05T13:43:06.572Z,17.2
2023-03-05T13:49:12.440Z,17.2
2023-03-05T13:55:18.049Z,17.2
2023-03-05T14:01:24.223Z,17.2
2023-03-05T14:07:30.669Z,17.2
2023-03-05T14:13:36.415Z,17.2
2023-03-05T14:19:41.904Z,17.2
2023-03-05T14:25:48.045Z,17.2
2023-03-05T14:31:53.446Z,17.2
2023-03-05T14:37:59.157Z,17.2
2023-03-05T14:44:04.686Z,17.2
2023-03-05T14:50:10.484Z,17.2
2023-03-05T14:56:16.458Z,17.2
2023-03-05T15:02:22.549Z,17.2
2023-03-05T15:08:29.355Z,17.2
2023-03-05T15:14:35.656Z,17.1
2023-03-05T15:20:41.333Z,17.1
2023-03-05T15:26:48.689Z,17.1
2023-03-05T15:32:55.810Z,17.2
2023-03-05T15:39:02.218Z,17.1
2023-03-05T15:45:08.212Z,17.1
2023-03-05T15:51:14.165Z,17.1
2023-03-05T15:57:20.364Z,17.1
2023-03-05T16:03:26.595Z,17.1
2023-03-05T16:09:32.748Z,17.1
2023-03-05T16:15:38.210Z,17.1
2023-03-05T16:21:44.367Z,17.2
2023-03-05T16:27:50.359Z,17.1
2023-03-05T16:33:56.088Z,17.1
2023-03-05T16:40:02.050Z,17.1
2023-03-05T16:46:08.213Z,17.1
2023-03-05T16:52:18.952Z,17.1
2023-03-05T16:58:25.512Z,17.1
2023-03-05T17:04:30.889Z,17.1
2023-03-05T17:10:36.875Z,17.1
2023-03-05T17:16:42.530Z,17.1
2023-03-05T17:22:48.805Z,17.1
2023-03-05T17:28:54.566Z,17.1
2023-03-05T17:35:00.167Z,17.1
2023-03-05T17:41:08.224Z,17.1
2023-03-05T17:47:14.414Z,17.1
2023-03-05T17:53:19.644Z,17.1
2023-03-05T17:59:25.335Z,17.1
2023-03-05T18:05:31.397Z,17.1
2023-03-05T18:11:38.105Z,17.1
2023-03-05T18:17:43.616Z,17.1
2023-03-05T18:23:49.672Z,17.1
2023-03-05T18:29:55.325Z,17.1
2023-03-05T18:36:01.457Z,17.1
2023-03-05T18:42:07.206Z,17.1
2023-03-05T18:48:12.779Z,17.1
2023-03-05T18:54:18.737Z,17.1
2023-03-05T19:00:24.922Z,17.1
2023-03-05T19:06:30.920Z,17.1
2023-03-05T19:12:36.711Z,17.1
2023-03-05T19:18:42.685Z,17.1
2023-03-05T19:24:48.456Z,17.1
2023-03-05T19:30:54.544Z,17.1
2023-03-05T19:37:00.816Z,17.1
2023-03-05T19:43:06.603Z,17.1
2023-03-05T19:49:12.776Z,17.1
2023-03-05T19:55:18.364Z,17.1
2023-03-05T20:01:24.363Z,17.1
2023-03-05T20:07:30.728Z,17.1
2023-03-05T20:13:37.172Z,17.1
2023-03-05T20:19:43.112Z,17.1
2023-03-05T20:25:49.006Z,17.1
2023-03-05T20:31:54.159Z,17.1
2023-03-05T20:38:00.279Z,17.1
2023-03-05T20:44:06.436Z,17.1
2023-03-05T20:50:12.203Z,17.1
2023-03-05T20:56:17.768Z,17.1
2023-03-05T21:02:23.647Z,17
2023-03-05T21:08:29.415Z,17
2023-03-05T21:14:35.702Z,17
2023-03-05T21:20:41.095Z,17
2023-03-05T21:26:46.868Z,17
2023-03-05T21:32:52.622Z,17
2023-03-05T21:38:58.420Z,17
2023-03-05T21:45:03.978Z,17
2023-03-05T21:51:10.077Z,17
2023-03-05T21:57:15.934Z,17
2023-03-05T22:03:21.859Z,17
2023-03-05T22:09:27.698Z,17
2023-03-05T22:15:33.474Z,17
2023-03-05T22:21:39.485Z,17
2023-03-05T22:27:45.241Z,17
2023-03-05T22:33:51.625Z,16.9
2023-03-05T22:39:57.317Z,16.9
2023-03-05T22:46:03.243Z,16.9
2023-03-05T22:52:09.777Z,16.9
2023-03-05T22:58:15.747Z,16.9
2023-03-05T23:04:21.194Z,16.9
2023-03-05T23:10:27.465Z,16.9
2023-03-05T23:16:33.497Z,16.8
2023-03-05T23:22:39.491Z,16.8
2023-03-05T23:28:45.488Z,16.8
2023-03-05T23:34:51.266Z,16.8
2023-03-05T23:40:59.723Z,16.8
2023-03-05T23:47:06.569Z,16.8
2023-03-05T23:53:12.281Z,16.8
2023-03-05T23:59:18.013Z,16.8
